Time;durP1;ratioP1;P1;durP2;ratioP2;P2;SDS_P1;SDS_P2;PMS_P1;PMS_P2;Temp;Humidity;BMP_temperature;BMP_pressure;BME280_temperature;BME280_humidity;BME280_pressure;Samples;Min_cycle;Max_cycle;Signal;HPM_P1;HPM_P2
2022/05/21 00:00:14;;;;;;;0.17;0.17;;;;;;;12.73;100.00;100402.59;5071069;28;20209;-73
2022/05/21 00:02:39;;;;;;;11.93;1.03;;;;;;;12.72;100.00;100403.75;5070858;28;20182;-73
2022/05/21 00:05:05;;;;;;;1.73;1.63;;;;;;;12.68;100.00;100413.75;5070867;28;20248;-72
2022/05/21 00:07:31;;;;;;;0.80;0.80;;;;;;;12.67;100.00;100425.84;5069099;28;20903;-74
2022/05/21 00:09:56;;;;;;;0.20;0.20;;;;;;;12.65;100.00;100425.38;5074479;28;20179;-72
2022/05/21 00:12:21;;;;;;;0.77;0.60;;;;;;;12.63;100.00;100422.97;5074735;28;20186;-73
2022/05/21 00:14:47;;;;;;;0.70;0.57;;;;;;;12.62;100.00;100428.78;5074780;28;20269;-73
2022/05/21 00:17:12;;;;;;;0.10;0.10;;;;;;;12.57;100.00;100435.22;5074613;28;20171;-73
2022/05/21 00:19:37;;;;;;;0.83;0.83;;;;;;;12.55;100.00;100423.78;5073329;28;20266;-73
2022/05/21 00:22:03;;;;;;;2.83;0.77;;;;;;;12.47;100.00;100441.84;5074781;28;20174;-72
2022/05/21 00:24:28;;;;;;;0.50;0.50;;;;;;;12.43;100.00;100445.53;5074212;28;20288;-74
2022/05/21 00:26:54;;;;;;;0.33;0.33;;;;;;;12.44;100.00;100447.16;5074228;28;20645;-73
2022/05/21 00:29:20;;;;;;;0.10;0.10;;;;;;;12.45;100.00;100446.84;5074637;28;20174;-74
2022/05/21 00:31:49;;;;;;;1.47;0.30;;;;;;;12.40;100.00;100449.75;5074100;28;20178;-73
2022/05/21 00:34:15;;;;;;;0.50;0.50;;;;;;;12.36;100.00;100453.47;5074246;28;20171;-72
2022/05/21 00:36:41;;;;;;;0.80;0.67;;;;;;;12.35;100.00;100468.28;5074431;28;20224;-71
2022/05/21 00:39:07;;;;;;;0.70;0.70;;;;;;;12.32;100.00;100468.94;5074532;28;20216;-71
2022/05/21 00:41:32;;;;;;;0.40;0.40;;;;;;;12.32;100.00;100477.16;5075718;28;20258;-71
2022/05/21 00:43:59;;;;;;;0.60;0.60;;;;;;;12.30;100.00;100468.47;5073681;28;20178;-71
2022/05/21 00:46:31;;;;;;;0.57;0.57;;;;;;;12.29;100.00;100480.53;5073658;28;20630;-71
2022/05/21 00:49:05;;;;;;;0.50;0.50;;;;;;;12.27;100.00;100480.84;5073590;28;20178;-71
2022/05/21 00:51:37;;;;;;;0.30;0.27;;;;;;;12.25;100.00;100483.09;5073604;28;20877;-71
2022/05/21 00:54:05;;;;;;;0.17;0.17;;;;;;;12.27;100.00;100500.03;5073694;28;20178;-71
2022/05/21 00:56:35;;;;;;;0.50;0.50;;;;;;;12.26;100.00;100497.59;5073375;28;20262;-72
2022/05/21 01:01:49;;;;;;;0.50;0.50;;;;;;;12.25;100.00;100504.22;5074009;28;20189;-71
2022/05/21 01:04:15;;;;;;;0.40;0.40;;;;;;;12.26;100.00;100517.59;5073533;28;20226;-71
2022/05/21 01:06:41;;;;;;;0.90;0.70;;;;;;;12.22;100.00;100513.88;5073644;28;20669;-71
2022/05/21 01:09:07;;;;;;;0.30;0.30;;;;;;;12.22;100.00;100522.09;5073703;28;20180;-71
2022/05/21 01:11:34;;;;;;;0.50;0.50;;;;;;;12.20;100.00;100535.31;5073892;28;20167;-72
2022/05/21 01:14:01;;;;;;;0.60;0.60;;;;;;;12.18;100.00;100523.88;5073836;28;20169;-70
2022/05/21 01:16:27;;;;;;;0.83;0.73;;;;;;;12.16;100.00;100523.41;5073693;28;20174;-70
2022/05/21 01:18:52;;;;;;;1.03;1.03;;;;;;;12.14;100.00;100520.94;5073189;28;20262;-71
2022/05/21 01:21:17;;;;;;;1.07;1.07;;;;;;;12.14;100.00;100525.63;5073741;28;20171;-71
2022/05/21 01:23:43;;;;;;;1.43;1.33;;;;;;;12.12;100.00;100527.88;5073331;28;20182;-71
2022/05/21 01:26:17;;;;;;;0.93;0.93;;;;;;;12.11;100.00;100537.22;5073467;28;20198;-71
2022/05/21 01:28:42;;;;;;;0.97;0.97;;;;;;;12.03;100.00;100532.56;5073529;28;20641;-70
2022/05/21 01:31:09;;;;;;;2.63;2.53;;;;;;;12.00;100.00;100533.16;5072217;28;20181;-71
2022/05/21 01:33:38;;;;;;;1.47;1.10;;;;;;;11.96;99.08;100538.47;5073526;28;20279;-72
2022/05/21 01:36:06;;;;;;;1.27;1.17;;;;;;;11.90;98.84;100547.97;5073409;28;20241;-71
2022/05/21 01:38:33;;;;;;;0.40;0.40;;;;;;;11.84;98.83;100549.22;5072098;28;20192;-71
2022/05/21 01:40:59;;;;;;;1.37;1.27;;;;;;;11.75;99.62;100543.72;5073303;28;20210;-71
2022/05/21 01:46:10;;;;;;;0.97;0.87;;;;;;;11.63;100.00;100544.31;5072948;28;20205;-71
2022/05/21 01:48:36;;;;;;;1.57;1.47;;;;;;;11.57;100.00;100544.75;5071451;28;20186;-71
2022/05/21 01:51:02;;;;;;;8.70;1.80;;;;;;;11.52;100.00;100542.16;5073115;28;20201;-71
2022/05/21 01:53:27;;;;;;;0.97;0.93;;;;;;;11.46;100.00;100544.22;5073007;28;20798;-71
2022/05/21 01:55:55;;;;;;;0.90;0.83;;;;;;;11.41;100.00;100551.75;5072994;28;20174;-71
2022/05/21 01:58:21;;;;;;;1.37;1.27;;;;;;;11.37;100.00;100556.25;5072917;28;20712;-71
2022/05/21 02:00:46;;;;;;;1.27;1.27;;;;;;;11.33;100.00;100553.34;5073061;28;20206;-71
2022/05/21 02:03:13;;;;;;;0.93;0.93;;;;;;;11.29;100.00;100555.91;5073220;28;20563;-71
2022/05/21 02:05:39;;;;;;;0.23;0.23;;;;;;;11.25;100.00;100549.41;5072789;28;20205;-72
2022/05/21 02:08:05;;;;;;;0.90;0.90;;;;;;;11.21;100.00;100548.44;5072678;28;20261;-70
2022/05/21 02:10:32;;;;;;;6.20;0.93;;;;;;;11.21;100.00;100556.63;5068460;28;20278;-71
2022/05/21 02:12:57;;;;;;;0.67;0.67;;;;;;;11.17;100.00;100558.38;5068773;28;20264;-71
2022/05/21 02:15:22;;;;;;;0.90;0.90;;;;;;;11.13;100.00;100560.13;5072163;28;20198;-73
2022/05/21 02:17:48;;;;;;;1.53;1.43;;;;;;;11.08;100.00;100565.72;5072536;28;20215;-71
2022/05/21 02:20:13;;;;;;;2.03;1.93;;;;;;;11.05;100.00;100558.16;5072860;28;20174;-71
2022/05/21 02:22:39;;;;;;;2.40;1.00;;;;;;;11.06;100.00;100567.97;5072464;28;20669;-71
2022/05/21 02:25:05;;;;;;;2.07;1.97;;;;;;;11.06;100.00;100570.69;5072226;28;20202;-71
2022/05/21 02:27:30;;;;;;;2.17;2.07;;;;;;;11.08;100.00;100573.91;5071794;28;20175;-71
2022/05/21 02:29:56;;;;;;;4.57;2.33;;;;;;;11.05;100.00;100574.56;5072253;28;20174;-71
2022/05/21 02:32:21;;;;;;;2.37;1.67;;;;;;;11.05;100.00;100573.75;5071574;28;20178;-71
2022/05/21 02:34:46;;;;;;;1.47;1.47;;;;;;;11.06;100.00;100565.22;5072456;28;20259;-71
2022/05/21 02:39:56;;;;;;;6.50;2.43;;;;;;;11.10;100.00;100576.34;5071734;28;20174;-71
2022/05/21 02:45:06;;;;;;;0.93;0.93;;;;;;;11.15;100.00;100585.25;5071915;28;20575;-71
2022/05/21 02:47:31;;;;;;;2.20;2.10;;;;;;;11.15;100.00;100582.50;5071871;28;20170;-71
2022/05/21 02:49:57;;;;;;;6.23;2.90;;;;;;;11.19;100.00;100588.97;5071962;28;20182;-71
2022/05/21 02:52:23;;;;;;;2.77;2.57;;;;;;;11.18;100.00;100589.28;5071970;28;20198;-71
2022/05/21 02:54:49;;;;;;;1.53;1.43;;;;;;;11.19;100.00;100590.91;5072247;28;20177;-70
2022/05/21 02:57:15;;;;;;;1.63;1.53;;;;;;;11.15;100.00;100587.97;5071872;28;20174;-71
2022/05/21 02:59:40;;;;;;;3.77;2.73;;;;;;;11.13;100.00;100584.72;5071893;28;20170;-71
2022/05/21 03:02:06;;;;;;;2.00;1.87;;;;;;;11.12;100.00;100587.78;5071926;28;20663;-71
2022/05/21 03:04:32;;;;;;;1.67;1.57;;;;;;;11.07;100.00;100582.44;5071501;28;20202;-71
2022/05/21 03:06:57;;;;;;;2.17;1.77;;;;;;;11.05;100.00;100584.69;5071434;28;20174;-71
2022/05/21 03:12:08;;;;;;;11.43;2.57;;;;;;;11.00;100.00;100588.34;5071664;28;20162;-71
2022/05/21 03:14:34;;;;;;;1.33;1.10;;;;;;;10.96;100.00;100581.88;5071485;28;20182;-71
2022/05/21 03:16:59;;;;;;;8.70;1.50;;;;;;;10.92;100.00;100589.91;5071496;28;20170;-70
2022/05/21 03:19:30;;;;;;;2.90;2.37;;;;;;;10.88;100.00;100594.38;5071402;28;20586;-71
2022/05/21 03:21:56;;;;;;;0.87;0.87;;;;;;;10.85;100.00;100578.59;5071852;28;20158;-71
2022/05/21 03:24:21;;;;;;;6.03;2.80;;;;;;;10.86;100.00;100585.69;5071437;28;20198;-71
2022/05/21 03:26:46;;;;;;;4.77;1.87;;;;;;;10.85;100.00;100583.22;5071519;28;20634;-71
2022/05/21 03:29:12;;;;;;;3.93;2.60;;;;;;;10.80;100.00;100581.44;5071041;28;20215;-71
2022/05/21 03:31:38;;;;;;;7.77;2.10;;;;;;;10.79;100.00;100587.22;5071010;28;20186;-71
2022/05/21 03:34:03;;;;;;;2.10;1.87;;;;;;;10.75;100.00;100587.03;5071161;28;20171;-71
2022/05/21 03:36:28;;;;;;;2.70;1.43;;;;;;;10.75;100.00;100586.22;5071378;28;20198;-72
2022/05/21 03:38:55;;;;;;;3.77;1.27;;;;;;;10.76;100.00;100596.84;5071250;28;20719;-70
2022/05/21 03:41:21;;;;;;;2.07;1.90;;;;;;;10.76;100.00;100591.38;5071273;28;20162;-70
2022/05/21 03:43:46;;;;;;;3.03;2.83;;;;;;;10.75;100.00;100595.22;5071134;28;20185;-71
2022/05/21 03:46:12;;;;;;;2.53;2.13;;;;;;;10.78;100.00;100591.06;5071117;28;20210;-71
2022/05/21 03:48:37;;;;;;;25.70;2.27;;;;;;;10.80;100.00;100597.81;5070885;28;20272;-71
2022/05/21 03:51:02;;;;;;;1.50;1.40;;;;;;;10.79;100.00;100596.22;5071195;28;20639;-72
2022/05/21 03:53:28;;;;;;;2.10;1.87;;;;;;;10.80;100.00;100597.81;5071174;28;20174;-71
2022/05/21 03:55:54;;;;;;;3.83;3.13;;;;;;;10.79;100.00;100598.94;5070760;28;20196;-72
2022/05/21 03:58:19;;;;;;;3.97;2.03;;;;;;;10.80;100.00;100602.50;5070638;28;20250;-71
2022/05/21 04:00:45;;;;;;;3.47;3.27;;;;;;;10.83;100.00;100601.88;5070660;28;20181;-71
2022/05/21 04:03:10;;;;;;;10.63;3.13;;;;;;;10.83;100.00;100599.13;5071091;28;20178;-71
2022/05/21 04:05:36;;;;;;;2.03;1.50;;;;;;;10.85;100.00;100610.56;5070699;28;20296;-71
2022/05/21 04:08:02;;;;;;;3.07;2.87;;;;;;;10.86;100.00;100601.28;5070811;28;20182;-71
2022/05/21 04:10:28;;;;;;;2.00;1.80;;;;;;;10.90;100.00;100594.88;5071001;28;20642;-71
2022/05/21 04:12:54;;;;;;;3.43;3.23;;;;;;;10.94;99.92;100604.06;5070882;28;20205;-72
2022/05/21 04:15:19;;;;;;;5.37;4.60;;;;;;;10.95;100.00;100605.66;5070709;28;20177;-71
2022/05/21 04:17:44;;;;;;;4.43;2.07;;;;;;;11.00;100.00;100599.28;5070691;28;20246;-71
2022/05/21 04:20:13;;;;;;;2.87;2.67;;;;;;;11.05;100.00;100606.56;5070722;28;20186;-71
2022/05/21 04:22:39;;;;;;;3.20;2.60;;;;;;;11.14;99.82;100605.50;5070530;28;20175;-71
2022/05/21 04:25:06;;;;;;;3.37;3.00;;;;;;;11.22;99.87;100593.81;5070718;28;20217;-71
2022/05/21 04:27:34;;;;;;;3.27;3.07;;;;;;;11.30;99.54;100589.53;5070631;28;20175;-71
2022/05/21 04:30:00;;;;;;;5.83;5.33;;;;;;;11.32;99.18;100598.22;5069518;28;20546;-70
2022/05/21 04:32:25;;;;;;;4.97;3.67;;;;;;;11.31;98.53;100586.47;5070568;28;20182;-71
2022/05/21 04:34:50;;;;;;;6.13;5.53;;;;;;;11.31;99.19;100591.94;5070555;28;20205;-71
2022/05/21 04:37:15;;;;;;;3.23;3.03;;;;;;;11.31;98.85;100593.88;5069131;28;20403;-71
2022/05/21 04:39:41;;;;;;;4.53;3.47;;;;;;;11.32;99.14;100592.75;5070579;28;20273;-71
2022/05/21 04:42:06;;;;;;;5.23;2.43;;;;;;;11.33;98.72;100591.63;5070630;28;20186;-71
2022/05/21 04:44:34;;;;;;;3.30;2.57;;;;;;;11.37;98.99;100591.81;5070102;28;20202;-71
2022/05/21 04:46:59;;;;;;;6.23;5.70;;;;;;;11.39;98.61;100584.88;5070329;28;20193;-71
2022/05/21 04:49:25;;;;;;;5.33;5.00;;;;;;;11.42;98.36;100603.41;5070514;28;20175;-73
2022/05/21 04:51:50;;;;;;;14.77;2.20;;;;;;;11.46;98.23;100592.66;5070327;28;20175;-71
2022/05/21 04:54:16;;;;;;;9.43;8.57;;;;;;;11.48;97.82;100584.94;5071428;28;20259;-70
2022/05/21 04:56:41;;;;;;;6.33;5.83;;;;;;;11.52;97.52;100588.66;5073883;28;20258;-71
2022/05/21 04:59:09;;;;;;;8.53;7.63;;;;;;;11.57;97.97;100583.88;5073850;28;20170;-71
2022/05/21 05:01:35;;;;;;;6.00;5.50;;;;;;;11.57;97.12;100594.00;5073945;28;20174;-72
2022/05/21 05:04:00;;;;;;;4.47;4.17;;;;;;;11.59;97.67;100597.25;5073877;28;20240;-71
2022/05/21 05:06:26;;;;;;;6.07;5.57;;;;;;;11.58;97.66;100593.72;5073899;28;20174;-71
2022/05/21 05:08:51;;;;;;;4.33;3.87;;;;;;;11.57;97.20;100585.78;5073521;28;20646;-71
2022/05/21 05:11:16;;;;;;;3.90;3.67;;;;;;;11.58;98.51;100585.50;5073516;28;20213;-71
2022/05/21 05:13:42;;;;;;;5.87;5.37;;;;;;;11.59;98.74;100592.59;5074007;28;20265;-71
2022/05/21 05:16:07;;;;;;;10.67;7.73;;;;;;;11.60;98.38;100594.19;5073617;28;20582;-72
2022/05/21 05:18:33;;;;;;;3.27;3.07;;;;;;;11.69;98.47;100587.94;5073227;28;20205;-70
2022/05/21 05:20:58;;;;;;;6.13;5.63;;;;;;;11.79;98.61;100593.19;5071711;28;20175;-71
2022/05/21 05:23:24;;;;;;;8.93;8.03;;;;;;;11.77;98.21;100595.41;5067792;28;20218;-71
2022/05/21 05:25:49;;;;;;;5.67;5.27;;;;;;;11.76;97.63;100597.31;5070414;28;20217;-71
2022/05/21 05:28:22;;;;;;;3.60;3.40;;;;;;;11.79;98.57;100599.47;5072987;28;20179;-72
2022/05/21 05:30:48;;;;;;;11.00;4.77;;;;;;;11.80;98.36;100601.06;5073305;28;20618;-71
2022/05/21 05:33:15;;;;;;;7.60;5.73;;;;;;;11.85;97.62;100595.44;5071648;28;20205;-71
2022/05/21 05:35:41;;;;;;;4.67;4.33;;;;;;;11.98;97.78;100606.59;5073008;28;20206;-71
2022/05/21 05:38:09;;;;;;;9.23;8.53;;;;;;;12.16;97.68;100605.56;5073118;28;20206;-70
2022/05/21 05:40:35;;;;;;;9.67;6.23;;;;;;;12.18;95.66;100615.06;5073189;28;20206;-71
2022/05/21 05:43:01;;;;;;;7.53;6.93;;;;;;;12.17;95.98;100610.72;5072705;28;20206;-71
2022/05/21 05:45:28;;;;;;;4.63;4.33;;;;;;;12.26;97.38;100608.00;5072381;28;20739;-72
2022/05/21 05:47:53;;;;;;;1.80;1.70;;;;;;;12.23;96.70;100611.38;5072606;28;20175;-71
2022/05/21 05:50:19;;;;;;;1.90;1.80;;;;;;;12.22;97.62;100623.44;5072775;28;20175;-71
2022/05/21 05:52:44;;;;;;;17.40;6.30;;;;;;;12.23;97.60;100621.53;5072530;28;20194;-71
2022/05/21 05:55:10;;;;;;;19.70;7.47;;;;;;;12.22;97.42;100615.25;5072479;28;20232;-74
2022/05/21 05:57:35;;;;;;;8.87;5.03;;;;;;;12.17;98.05;100613.47;5072455;28;20192;-73
2022/05/21 06:00:01;;;;;;;2.37;2.27;;;;;;;12.12;97.06;100613.59;5072588;28;20585;-72
2022/05/21 06:05:18;;;;;;;10.57;9.70;;;;;;;12.21;97.14;100610.88;5072450;28;20228;-72
2022/05/21 06:07:52;;;;;;;6.33;5.87;;;;;;;12.21;97.31;100613.63;5072217;28;20567;-73
2022/05/21 06:10:21;;;;;;;7.13;6.53;;;;;;;12.20;97.36;100612.81;5072241;28;20679;-71
2022/05/21 06:12:48;;;;;;;10.13;9.13;;;;;;;12.18;96.88;100620.56;5072192;28;20730;-72
2022/05/21 06:15:14;;;;;;;15.93;10.63;;;;;;;12.21;97.31;100613.63;5072397;28;20163;-71
2022/05/21 06:17:40;;;;;;;8.10;7.40;;;;;;;12.24;97.79;100628.63;5072531;28;20174;-71
2022/05/21 06:20:08;;;;;;;9.40;8.10;;;;;;;12.24;98.00;100626.69;5072972;28;20629;-71
2022/05/21 06:22:33;;;;;;;10.67;8.90;;;;;;;12.25;98.05;100625.56;5071282;28;20549;-71
2022/05/21 06:25:03;;;;;;;10.93;10.00;;;;;;;12.20;97.58;100636.66;5071848;28;20198;-70
2022/05/21 06:27:28;;;;;;;4.33;3.93;;;;;;;12.19;97.56;100637.78;5071924;28;20218;-71
2022/05/21 06:29:54;;;;;;;4.50;4.10;;;;;;;12.20;97.53;100639.41;5071918;28;20712;-74
2022/05/21 06:32:19;;;;;;;8.20;7.50;;;;;;;12.20;97.74;100645.69;5071896;28;20171;-71
2022/05/21 06:34:45;;;;;;;7.03;6.43;;;;;;;12.19;98.34;100643.28;5071717;28;20687;-72
2022/05/21 06:37:12;;;;;;;7.07;6.57;;;;;;;12.22;98.78;100642.63;5070228;28;20182;-72
2022/05/21 06:39:39;;;;;;;7.43;6.83;;;;;;;12.25;98.44;100652.94;5070841;28;20189;-71
2022/05/21 06:42:05;;;;;;;6.50;6.10;;;;;;;12.25;99.06;100652.13;5071798;28;20233;-71
2022/05/21 06:44:30;;;;;;;8.77;7.30;;;;;;;12.22;98.91;100653.59;5071350;28;20202;-72
2022/05/21 06:46:57;;;;;;;12.87;8.70;;;;;;;12.22;99.60;100648.09;5071683;28;20178;-71
2022/05/21 06:49:23;;;;;;;3.80;3.50;;;;;;;12.25;99.69;100647.47;5071392;28;20175;-71
2022/05/21 06:51:54;;;;;;;10.43;9.53;;;;;;;12.25;99.07;100647.47;5069824;28;20182;-72
2022/05/21 06:54:21;;;;;;;4.30;4.00;;;;;;;12.21;99.40;100644.56;5071184;28;20256;-71
2022/05/21 06:56:47;;;;;;;11.30;10.30;;;;;;;12.30;100.00;100643.78;5071230;28;20216;-71
2022/05/21 06:59:12;;;;;;;6.90;6.27;;;;;;;12.33;100.00;100638.47;5071150;28;20662;-71
2022/05/21 07:01:38;;;;;;;13.23;8.83;;;;;;;12.35;99.22;100632.69;5071215;28;20170;-71
2022/05/21 07:04:03;;;;;;;7.80;6.57;;;;;;;12.50;99.60;100633.03;5071093;28;20209;-71
2022/05/21 07:09:13;;;;;;;13.07;10.07;;;;;;;12.70;99.00;100617.91;5070985;28;20182;-71
2022/05/21 07:11:39;;;;;;;6.27;5.77;;;;;;;12.73;98.21;100638.38;5071081;28;20174;-72
2022/05/21 07:14:05;;;;;;;10.20;9.40;;;;;;;12.60;98.16;100634.66;5070797;28;20178;-72
2022/05/21 07:16:30;;;;;;;9.20;8.50;;;;;;;12.52;98.64;100638.19;5070884;28;20187;-71
2022/05/21 07:18:56;;;;;;;5.57;5.13;;;;;;;12.45;99.49;100654.31;5070840;28;20170;-72
2022/05/21 07:21:21;;;;;;;10.30;9.30;;;;;;;12.39;100.00;100661.84;5069930;28;20320;-71
2022/05/21 07:23:48;;;;;;;3.60;3.33;;;;;;;12.47;100.00;100660.28;5070886;28;20163;-72
2022/05/21 07:26:14;;;;;;;6.63;6.13;;;;;;;12.45;100.00;100663.34;5070667;28;20736;-71
2022/05/21 07:28:39;;;;;;;11.70;10.63;;;;;;;12.44;100.00;100663.63;5070634;28;20253;-71
2022/05/21 07:31:05;;;;;;;10.37;9.03;;;;;;;12.35;100.00;100660.88;5070843;28;20170;-71
2022/05/21 07:33:30;;;;;;;15.03;8.93;;;;;;;12.29;100.00;100667.63;5070750;28;20764;-71
2022/05/21 07:35:56;;;;;;;7.83;4.33;;;;;;;12.29;100.00;100664.88;5070787;28;20182;-71
2022/05/21 07:38:21;;;;;;;9.07;8.37;;;;;;;12.33;100.00;100649.44;5070640;28;20250;-71
2022/05/21 07:40:47;;;;;;;2.90;2.73;;;;;;;12.50;100.00;100673.34;5070714;28;20170;-71
2022/05/21 07:43:19;;;;;;;5.87;5.03;;;;;;;12.71;100.00;100670.78;5070687;28;20181;-72
2022/05/21 07:45:45;;;;;;;29.13;7.53;;;;;;;12.91;100.00;100669.38;5070746;28;20206;-71
2022/05/21 07:48:13;;;;;;;7.60;7.10;;;;;;;13.03;100.00;100672.31;5070532;28;20194;-71
2022/05/21 07:50:40;;;;;;;7.47;6.80;;;;;;;13.07;100.00;100674.06;5070758;28;20208;-73
2022/05/21 07:53:11;;;;;;;6.03;5.43;;;;;;;13.04;99.88;100679.41;5070495;28;20182;-71
2022/05/21 07:55:37;;;;;;;10.33;6.23;;;;;;;12.95;99.87;100676.63;5066496;28;20175;-71
2022/05/21 07:58:02;;;;;;;9.23;8.43;;;;;;;12.89;99.97;100683.41;5070123;28;20653;-72
2022/05/21 08:00:28;;;;;;;6.73;6.23;;;;;;;12.82;100.00;100677.59;5070545;28;20190;-72
2022/05/21 08:02:53;;;;;;;7.07;6.33;;;;;;;12.86;100.00;100667.59;5070358;28;20651;-72
2022/05/21 08:05:19;;;;;;;7.00;6.47;;;;;;;12.78;100.00;100676.63;5070339;28;20187;-71
2022/05/21 08:07:49;;;;;;;24.63;4.77;;;;;;;12.81;100.00;100668.56;5069038;28;20690;-72
2022/05/21 08:10:14;;;;;;;4.07;3.77;;;;;;;12.92;100.00;100674.53;5070414;28;20503;-71
2022/05/21 08:12:40;;;;;;;4.77;4.40;;;;;;;12.97;99.62;100668.88;5070790;28;20269;-72
2022/05/21 08:15:06;;;;;;;9.80;9.00;;;;;;;13.01;98.43;100658.88;5070416;28;20172;-71
2022/05/21 08:17:32;;;;;;;4.57;4.17;;;;;;;13.06;97.94;100660.69;5070213;28;20228;-72
2022/05/21 08:19:57;;;;;;;5.43;4.90;;;;;;;13.20;96.98;100661.34;5070428;28;20175;-72
2022/05/21 08:27:51;;;;;;;10.13;3.60;;;;;;;14.00;92.89;100662.47;5070825;28;20169;-73
2022/05/21 08:30:16;;;;;;;5.27;4.87;;;;;;;14.26;92.58;100659.63;5073178;28;20543;-71
2022/05/21 08:32:41;;;;;;;7.47;6.87;;;;;;;14.27;91.55;100660.41;5073943;28;20189;-71
2022/05/21 08:35:07;;;;;;;6.83;4.70;;;;;;;14.25;90.69;100647.00;5073617;28;20186;-72
2022/05/21 08:37:35;;;;;;;9.97;7.33;;;;;;;14.43;89.34;100653.22;5073699;28;20183;-73
2022/05/21 08:40:01;;;;;;;3.10;2.20;;;;;;;14.47;90.08;100667.16;5071737;28;20205;-71
2022/05/21 08:42:43;;;;;;;6.17;5.70;;;;;;;14.50;88.41;100664.53;5073827;28;20173;-72
2022/05/21 08:45:19;;;;;;;5.03;4.63;;;;;;;14.40;86.55;100664.06;5073739;28;20535;-72
2022/05/21 08:47:59;;;;;;;3.70;3.43;;;;;;;14.43;86.55;100672.47;5073590;28;20171;-71
2022/05/21 08:50:27;;;;;;;3.50;3.17;;;;;;;14.50;86.54;100658.25;5073729;28;20243;-71
2022/05/21 08:53:04;;;;;;;2.80;2.60;;;;;;;14.43;85.95;100666.16;5073470;28;20500;-71
2022/05/21 08:55:38;;;;;;;5.27;4.80;;;;;;;14.36;86.08;100663.13;5070987;28;20174;-72
2022/05/21 08:58:15;;;;;;;6.27;4.60;;;;;;;14.39;84.29;100657.78;5073644;28;20198;-72
2022/05/21 09:00:43;;;;;;;3.07;2.87;;;;;;;14.53;83.96;100674.06;5074149;28;20221;-71
2022/05/21 09:03:12;;;;;;;4.20;3.90;;;;;;;14.68;83.48;100667.97;5073628;28;20182;-73
2022/05/21 09:05:41;;;;;;;5.13;4.63;;;;;;;14.66;83.37;100655.72;5073912;28;20243;-73
2022/05/21 09:08:22;;;;;;;2.53;2.33;;;;;;;14.67;83.87;100669.13;5073359;28;20680;-73
2022/05/21 09:11:06;;;;;;;2.20;1.97;;;;;;;14.59;84.50;100673.53;5073649;28;20167;-73
2022/05/21 09:13:44;;;;;;;1.90;1.80;;;;;;;14.71;84.84;100666.50;5073454;28;20610;-72
2022/05/21 09:19:03;;;;;;;2.37;2.17;;;;;;;14.94;82.57;100667.81;5073271;28;20165;-71
2022/05/21 09:21:32;;;;;;;4.30;4.00;;;;;;;14.88;82.04;100653.44;5073132;28;20174;-72
2022/05/21 09:24:02;;;;;;;9.47;4.63;;;;;;;14.77;83.18;100666.00;5073125;28;20217;-71
2022/05/21 09:26:49;;;;;;;5.63;5.13;;;;;;;14.89;81.29;100657.78;5073060;28;20196;-71
2022/05/21 09:29:21;;;;;;;3.50;3.20;;;;;;;14.89;81.49;100670.75;5073010;28;20252;-73
2022/05/21 09:31:47;;;;;;;4.57;4.27;;;;;;;14.87;81.45;100660.06;5073427;28;20511;-72
2022/05/21 09:34:33;;;;;;;5.10;4.70;;;;;;;14.82;80.13;100671.28;5072940;28;20209;-71
2022/05/21 09:37:00;;;;;;;2.80;2.60;;;;;;;14.88;80.43;100680.94;5073271;28;20328;-71
2022/05/21 09:39:31;;;;;;;3.90;3.17;;;;;;;14.78;79.83;100683.31;5072704;28;20167;-73
2022/05/21 09:42:13;;;;;;;6.07;4.87;;;;;;;14.67;79.46;100680.13;5072869;28;20664;-72
2022/05/21 09:47:31;;;;;;;2.13;1.93;;;;;;;15.25;80.66;100691.38;5073059;28;20232;-72
2022/05/21 09:50:05;;;;;;;5.33;2.60;;;;;;;15.73;77.88;100679.75;5072950;28;20167;-71
2022/05/21 09:52:32;;;;;;;2.70;2.50;;;;;;;15.94;77.95;100677.75;5072986;28;20159;-71
2022/05/21 09:54:58;;;;;;;2.70;2.50;;;;;;;15.94;76.26;100687.97;5072576;28;20212;-72
2022/05/21 09:57:39;;;;;;;2.27;2.10;;;;;;;15.62;76.92;100693.16;5072336;28;20692;-71
2022/05/21 10:00:23;;;;;;;2.80;2.70;;;;;;;15.16;77.61;100694.97;5072720;28;20170;-73
2022/05/21 10:02:52;;;;;;;3.13;2.87;;;;;;;14.93;78.60;100701.97;5060085;28;20187;-72
2022/05/21 10:05:25;;;;;;;2.53;2.40;;;;;;;14.82;80.00;100701.53;5052422;28;20558;-71
2022/05/21 10:10:59;;;;;;;6.97;3.27;;;;;;;14.86;80.81;100705.22;5066475;28;20703;-72
2022/05/21 10:13:50;;;;;;;6.87;3.47;;;;;;;15.16;80.57;100702.44;5069196;28;20662;-71
2022/05/21 10:16:54;;;;;;;3.67;3.37;;;;;;;15.45;79.00;100707.84;5066333;28;20191;-72
2022/05/21 10:19:30;;;;;;;8.10;4.43;;;;;;;15.84;77.97;100705.72;5071986;28;20209;-72
2022/05/21 10:22:21;;;;;;;2.53;2.33;;;;;;;16.10;77.82;100696.38;5071140;28;20209;-72
2022/05/21 10:24:53;;;;;;;5.37;4.77;;;;;;;16.48;78.09;100707.06;5072115;28;20278;-72
2022/05/21 10:27:43;;;;;;;2.93;2.73;;;;;;;16.51;75.07;100707.22;5071810;28;20166;-72
2022/05/21 10:30:18;;;;;;;4.83;2.93;;;;;;;16.18;74.60;100706.47;5072160;28;20253;-72
2022/05/21 10:33:06;;;;;;;4.50;4.10;;;;;;;15.84;75.01;100714.00;5072033;28;20174;-71
2022/05/21 10:35:36;;;;;;;0.67;0.67;;;;;;;15.73;76.07;100704.53;5071837;28;20170;-74
2022/05/21 10:38:21;;;;;;;3.80;3.37;;;;;;;15.69;77.04;100703.63;5071921;28;20170;-73
2022/05/21 10:41:03;;;;;;;2.10;2.00;;;;;;;16.08;76.98;100699.47;5071611;28;20241;-71
2022/05/21 10:43:50;;;;;;;2.30;2.03;;;;;;;16.48;76.34;100713.41;5070970;28;20229;-73
2022/05/21 10:46:45;;;;;;;2.23;2.10;;;;;;;16.78;73.61;100705.75;5071222;28;20297;-72
2022/05/21 10:49:43;;;;;;;13.93;1.97;;;;;;;16.87;74.58;100689.03;5071109;28;20170;-73
2022/05/21 10:52:16;;;;;;;4.67;4.27;;;;;;;16.47;73.26;100689.72;5047207;28;20537;-74
2022/05/21 10:55:06;;;;;;;13.13;3.37;;;;;;;16.12;75.34;100699.59;5071280;28;20174;-73
2022/05/21 10:57:46;;;;;;;2.90;2.70;;;;;;;15.63;76.92;100705.00;5071008;28;20186;-72
2022/05/21 11:00:31;;;;;;;3.23;2.33;;;;;;;15.28;77.88;100709.94;5071771;28;20169;-73
2022/05/21 11:03:34;;;;;;;5.83;5.33;;;;;;;14.94;77.60;100714.59;5070208;28;20553;-72
2022/05/21 11:06:15;;;;;;;2.43;2.23;;;;;;;14.93;79.37;100717.66;5071080;28;20238;-73
2022/05/21 11:09:05;;;;;;;8.47;2.67;;;;;;;14.96;80.02;100714.25;5069778;28;20672;-72
2022/05/21 11:11:58;;;;;;;1.80;1.70;;;;;;;15.01;79.84;100712.09;5071075;28;20171;-72
2022/05/21 11:15:08;;;;;;;2.60;2.40;;;;;;;15.23;79.64;100710.97;5071017;28;20198;-74
2022/05/21 11:17:46;;;;;;;2.77;2.53;;;;;;;15.75;78.18;100703.06;5028111;28;20628;-72
2022/05/21 11:20:17;;;;;;;1.60;1.50;;;;;;;15.84;76.14;100711.25;5028599;28;20206;-74
2022/05/21 11:22:45;;;;;;;4.23;3.97;;;;;;;16.29;76.08;100715.94;5055153;28;20239;-72
2022/05/21 11:25:39;;;;;;;2.43;2.13;;;;;;;16.26;74.83;100703.63;5070933;28;20226;-73
2022/05/21 11:28:24;;;;;;;3.73;3.43;;;;;;;16.08;74.67;100693.16;5049530;28;20183;-72
2022/05/21 11:31:01;;;;;;;4.23;3.50;;;;;;;15.99;75.33;100702.31;5051016;28;20155;-72
2022/05/21 11:37:20;;;;;;;1.63;1.53;;;;;;;16.38;75.01;100713.06;5055212;28;20256;-74
2022/05/21 11:39:06;;;;;;;6.90;2.03;;;;;;;16.66;73.81;100705.72;5070528;28;20578;-72
2022/05/21 11:42:05;;;;;;;1.57;1.27;;;;;;;16.93;73.86;100693.19;5070817;28;20182;-72
2022/05/21 11:45:02;;;;;;;6.13;1.80;;;;;;;17.16;72.56;100710.81;5070660;28;20197;-74
2022/05/21 11:47:37;;;;;;;2.90;2.70;;;;;;;17.24;71.62;100701.63;5070930;28;20524;-72
2022/05/21 11:50:03;;;;;;;2.30;2.20;;;;;;;17.04;70.22;100693.47;5070705;28;20166;-73
2022/05/21 11:52:32;;;;;;;2.97;2.67;;;;;;;17.00;71.22;100707.19;5067760;28;20191;-73
2022/05/21 11:54:57;;;;;;;3.10;2.90;;;;;;;16.77;71.06;100703.31;5070789;28;20243;-72
2022/05/21 11:57:34;;;;;;;3.77;3.47;;;;;;;16.64;72.04;100710.78;5069975;28;20179;-72
2022/05/21 12:00:05;;;;;;;6.17;3.67;;;;;;;16.42;72.02;100730.53;5069940;28;20178;-73
2022/05/21 12:02:32;;;;;;;5.10;4.10;;;;;;;16.38;73.05;100724.91;5070425;28;20475;-71
2022/05/21 12:05:10;;;;;;;5.13;4.30;;;;;;;16.53;73.68;100715.94;5076806;28;20689;-71
2022/05/21 12:07:41;;;;;;;4.03;3.83;;;;;;;16.44;72.66;100729.03;5074719;28;20310;-72